createdAt,value
2022-12-25T00:02:14.138Z,47.90
2022-12-25T00:04:44.310Z,47.90
2022-12-25T00:07:14.074Z,48.10
2022-12-25T00:09:43.927Z,48.00
2022-12-25T00:12:13.695Z,47.80
2022-12-25T00:14:43.453Z,47.80
2022-12-25T00:17:15.853Z,47.70
2022-12-25T00:19:45.665Z,47.10
2022-12-25T00:22:15.525Z,47.20
2022-12-25T00:24:45.291Z,47.60
2022-12-25T00:27:15.034Z,47.90
2022-12-25T00:29:44.950Z,47.70
2022-12-25T00:32:17.398Z,48.10
2022-12-25T00:34:47.219Z,48.40
2022-12-25T00:37:16.968Z,49.10
2022-12-25T00:39:46.730Z,49.10
2022-12-25T00:42:23.774Z,49.20
2022-12-25T00:44:54.110Z,49.10
2022-12-25T00:47:26.547Z,49.00
2022-12-25T00:49:56.255Z,48.60
2022-12-25T00:52:26.073Z,48.60
2022-12-25T00:54:55.807Z,48.30
2022-12-25T00:57:25.523Z,48.20
2022-12-25T00:59:55.347Z,47.80
2022-12-25T01:02:27.891Z,47.10
2022-12-25T01:04:59.416Z,46.50
2022-12-25T01:07:29.866Z,46.10
2022-12-25T01:10:12.227Z,46.10
2022-12-25T01:12:45.140Z,46.60
2022-12-25T01:15:16.175Z,46.20
2022-12-25T01:17:48.714Z,46.50
2022-12-25T01:20:20.359Z,46.70
2022-12-25T01:22:50.495Z,47.20
2022-12-25T01:25:20.295Z,48.10
2022-12-25T01:27:50.061Z,48.90
2022-12-25T01:30:20.000Z,49.10
2022-12-25T01:32:52.320Z,48.90
2022-12-25T01:35:22.283Z,49.00
2022-12-25T01:37:52.886Z,48.60
2022-12-25T01:40:23.074Z,48.50
2022-12-25T01:42:52.817Z,48.30
2022-12-25T01:45:41.497Z,47.80
2022-12-25T01:48:18.613Z,48.30
2022-12-25T01:50:51.871Z,48.10
2022-12-25T01:53:21.749Z,48.20
2022-12-25T01:55:56.905Z,47.90
2022-12-25T01:58:27.550Z,47.10
2022-12-25T02:00:57.379Z,47.30
2022-12-25T02:03:29.935Z,47.00
2022-12-25T02:06:00.435Z,46.50
2022-12-25T02:08:30.444Z,46.90
2022-12-25T02:11:00.357Z,46.70
2022-12-25T02:13:30.219Z,47.70
2022-12-25T02:16:07.575Z,47.10
2022-12-25T02:18:46.465Z,46.50
2022-12-25T02:21:43.500Z,46.00
2022-12-25T02:24:44.644Z,46.30
2022-12-25T02:27:25.328Z,46.60
2022-12-25T02:30:05.697Z,46.30
2022-12-25T02:32:42.183Z,46.30
2022-12-25T02:35:13.909Z,45.40
2022-12-25T02:37:49.404Z,46.10
2022-12-25T02:40:20.493Z,45.50
2022-12-25T02:43:09.744Z,45.90
2022-12-25T02:45:59.503Z,46.30
2022-12-25T02:48:45.503Z,46.60
2022-12-25T02:51:31.344Z,47.30
2022-12-25T02:54:18.367Z,47.60
2022-12-25T02:57:02.899Z,47.80
2022-12-25T02:59:47.337Z,48.30
2022-12-25T03:02:33.908Z,49.30
2022-12-25T03:05:19.702Z,49.20
2022-12-25T03:07:50.256Z,50.00
2022-12-25T03:10:34.921Z,50.70
2022-12-25T03:13:10.932Z,51.00
2022-12-25T03:15:53.414Z,51.70
2022-12-25T03:18:29.081Z,52.30
2022-12-25T03:21:11.517Z,53.20
2022-12-25T03:23:56.607Z,53.30
2022-12-25T03:26:40.425Z,53.40
2022-12-25T03:29:10.327Z,54.50
2022-12-25T03:31:46.256Z,55.70
2022-12-25T03:34:49.184Z,55.80
2022-12-25T03:37:42.222Z,56.70
2022-12-25T03:40:32.716Z,57.30
2022-12-25T03:43:24.559Z,58.40
2022-12-25T03:46:12.969Z,58.60
2022-12-25T03:48:59.527Z,59.40
2022-12-25T03:51:47.883Z,60.10
2022-12-25T03:54:34.305Z,60.80
2022-12-25T03:57:16.903Z,61.30
2022-12-25T03:59:59.148Z,61.50
2022-12-25T04:02:41.598Z,62.20
2022-12-25T04:05:24.306Z,62.30
2022-12-25T04:08:09.136Z,63.10
2022-12-25T04:10:51.398Z,63.20
2022-12-25T04:13:33.887Z,64.50
2022-12-25T04:16:16.244Z,64.60
2022-12-25T04:18:58.603Z,64.40
2022-12-25T04:21:41.094Z,65.00
2022-12-25T04:24:26.331Z,65.10
2022-12-25T04:27:08.595Z,65.20
2022-12-25T04:29:50.899Z,65.20
2022-12-25T04:32:33.313Z,65.30
2022-12-25T04:35:15.588Z,65.20
2022-12-25T04:37:45.391Z,65.20
2022-12-25T04:40:21.289Z,65.30
2022-12-25T04:42:53.083Z,65.40
2022-12-25T04:45:23.264Z,65.60
2022-12-25T04:47:53.046Z,65.90
2022-12-25T04:50:22.959Z,66.10
2022-12-25T04:52:52.706Z,66.10
2022-12-25T04:55:25.060Z,66.00
2022-12-25T04:57:54.886Z,66.10
2022-12-25T05:00:24.864Z,66.10
2022-12-25T05:02:54.787Z,66.00
2022-12-25T05:05:24.781Z,65.30
2022-12-25T05:07:54.575Z,65.30
2022-12-25T05:10:27.215Z,65.30
2022-12-25T05:12:57.025Z,65.30
2022-12-25T05:15:26.900Z,65.20
2022-12-25T05:17:56.695Z,65.30
2022-12-25T05:20:26.557Z,65.10
2022-12-25T05:22:56.400Z,65.20
2022-12-25T05:25:28.877Z,64.10
2022-12-25T05:27:58.693Z,64.10
2022-12-25T05:30:28.454Z,62.90
2022-12-25T05:32:58.202Z,62.50
2022-12-25T05:35:28.005Z,61.30
2022-12-25T05:37:57.725Z,60.80
2022-12-25T05:40:30.091Z,59.80
2022-12-25T05:42:59.847Z,59.10
2022-12-25T05:45:29.602Z,58.30
2022-12-25T05:47:59.354Z,57.30
2022-12-25T05:50:29.130Z,56.80
2022-12-25T05:53:02.927Z,56.10
2022-12-25T05:55:43.558Z,55.70
2022-12-25T05:58:15.109Z,55.40
2022-12-25T06:00:47.055Z,54.60
2022-12-25T06:03:16.931Z,54.60
2022-12-25T06:05:46.888Z,54.20
2022-12-25T06:08:16.638Z,54.10
2022-12-25T06:10:49.636Z,54.40
2022-12-25T06:13:19.469Z,54.00
2022-12-25T06:15:49.418Z,54.80
2022-12-25T06:18:19.321Z,55.10
2022-12-25T06:20:49.132Z,54.50
2022-12-25T06:23:18.993Z,54.30
2022-12-25T06:25:51.369Z,53.50
2022-12-25T06:28:21.148Z,53.30
2022-12-25T06:30:50.958Z,53.30
2022-12-25T06:33:20.718Z,53.10
2022-12-25T06:35:50.495Z,52.90
2022-12-25T06:38:20.258Z,52.70
2022-12-25T06:40:52.624Z,52.50
2022-12-25T06:43:22.390Z,52.80
2022-12-25T06:45:53.056Z,53.00
2022-12-25T06:48:22.910Z,53.00
2022-12-25T06:50:52.643Z,52.50
2022-12-25T06:53:22.443Z,51.90
2022-12-25T06:55:54.821Z,52.70
2022-12-25T06:58:24.616Z,52.70
2022-12-25T07:00:54.419Z,52.70
2022-12-25T07:03:25.025Z,52.00
2022-12-25T07:05:54.842Z,52.10
2022-12-25T07:08:24.634Z,51.50
2022-12-25T07:10:58.156Z,51.20
2022-12-25T07:13:27.955Z,50.60
2022-12-25T07:15:59.139Z,49.90
2022-12-25T07:18:29.278Z,50.00
2022-12-25T07:20:59.489Z,49.60
2022-12-25T07:23:29.495Z,49.80
2022-12-25T07:26:03.582Z,49.60
2022-12-25T07:28:34.294Z,49.40
2022-12-25T07:31:05.649Z,49.70
2022-12-25T07:33:36.219Z,50.40
2022-12-25T07:36:07.713Z,50.70
2022-12-25T07:38:42.745Z,50.80
2022-12-25T07:41:15.540Z,51.10
2022-12-25T07:43:45.327Z,51.10
2022-12-25T07:46:15.160Z,50.50
2022-12-25T07:48:45.021Z,50.10
2022-12-25T07:51:17.295Z,49.40
2022-12-25T07:53:47.214Z,49.40
2022-12-25T07:56:21.323Z,49.30
2022-12-25T07:58:51.427Z,49.30
2022-12-25T08:01:23.813Z,48.70
2022-12-25T08:03:54.805Z,49.30
2022-12-25T08:06:29.832Z,48.60
2022-12-25T08:09:00.323Z,48.20
2022-12-25T08:11:32.697Z,47.50
2022-12-25T08:14:02.459Z,47.10
2022-12-25T08:16:32.393Z,46.70
2022-12-25T08:19:02.837Z,45.90
2022-12-25T08:21:32.675Z,45.80
2022-12-25T08:24:03.142Z,45.60
2022-12-25T08:26:35.563Z,46.10
2022-12-25T08:29:05.367Z,46.10
2022-12-25T08:31:40.849Z,45.80
2022-12-25T08:34:12.683Z,45.50
2022-12-25T08:36:43.169Z,44.40
2022-12-25T08:39:13.107Z,45.30
2022-12-25T08:41:45.465Z,45.30
2022-12-25T08:44:16.856Z,44.70
2022-12-25T08:46:46.650Z,44.10
2022-12-25T08:49:16.405Z,43.20
2022-12-25T08:51:47.734Z,42.10
2022-12-25T08:54:17.776Z,41.70
2022-12-25T08:56:50.368Z,40.80
2022-12-25T08:59:20.119Z,40.20
2022-12-25T09:01:50.014Z,40.40
2022-12-25T09:04:19.870Z,39.90
2022-12-25T09:06:50.324Z,40.30
2022-12-25T09:09:20.139Z,40.20
2022-12-25T09:11:52.459Z,41.00
2022-12-25T09:14:22.195Z,40.50
2022-12-25T09:16:52.886Z,40.20
2022-12-25T09:19:22.667Z,40.10
2022-12-25T09:21:52.428Z,38.40
2022-12-25T09:24:22.845Z,37.80
2022-12-25T09:26:55.311Z,37.90
2022-12-25T09:29:25.077Z,37.10
2022-12-25T09:31:54.801Z,36.90
2022-12-25T09:34:25.052Z,36.00
2022-12-25T09:36:54.803Z,34.70
2022-12-25T09:39:24.734Z,33.00
2022-12-25T09:42:02.179Z,32.90
2022-12-25T09:44:35.093Z,31.90
2022-12-25T09:47:09.371Z,30.90
2022-12-25T09:49:43.019Z,29.30
2022-12-25T09:52:17.797Z,29.20
2022-12-25T09:54:55.744Z,26.50
2022-12-25T09:57:29.574Z,26.30
2022-12-25T09:59:59.686Z,25.90
2022-12-25T10:03:02.775Z,26.50
2022-12-25T10:05:57.626Z,27.00
2022-12-25T10:08:46.732Z,27.10
2022-12-25T10:11:29.855Z,26.30
2022-12-25T10:14:16.495Z,25.90
2022-12-25T10:16:53.726Z,24.60
2022-12-25T10:19:36.925Z,22.90
2022-12-25T10:22:13.959Z,22.20
2022-12-25T10:24:50.332Z,22.00
2022-12-25T10:27:22.455Z,22.10
2022-12-25T10:29:56.782Z,22.30
2022-12-25T10:32:26.654Z,21.80
2022-12-25T10:34:56.670Z,21.00
2022-12-25T10:37:28.018Z,20.10
2022-12-25T10:39:57.814Z,20.40
2022-12-25T10:42:37.333Z,20.40
2022-12-25T10:45:11.811Z,20.10
2022-12-25T10:47:42.773Z,19.90
2022-12-25T10:50:20.165Z,19.50
2022-12-25T10:52:58.000Z,19.40
2022-12-25T10:55:29.484Z,18.50
2022-12-25T10:58:02.045Z,19.00
2022-12-25T11:00:35.736Z,19.10
2022-12-25T11:03:05.697Z,17.60
2022-12-25T11:05:37.676Z,18.30
2022-12-25T11:08:22.015Z,16.40
2022-12-25T11:10:57.406Z,16.60
2022-12-25T11:13:30.267Z,16.10
2022-12-25T11:16:12.066Z,15.50
2022-12-25T11:18:49.087Z,14.80
2022-12-25T11:21:21.515Z,15.00
2022-12-25T11:23:57.927Z,14.70
2022-12-25T11:26:28.095Z,14.90
2022-12-25T11:28:58.895Z,14.60
2022-12-25T11:31:40.061Z,14.20
2022-12-25T11:34:17.578Z,13.90
2022-12-25T11:36:48.853Z,14.00
2022-12-25T11:39:26.464Z,13.20
2022-12-25T11:41:59.227Z,12.80
2022-12-25T11:44:37.762Z,12.30
2022-12-25T11:47:18.061Z,12.80
2022-12-25T11:49:58.754Z,13.20
2022-12-25T11:52:34.561Z,12.60
2022-12-25T11:55:10.194Z,12.40
2022-12-25T11:57:41.975Z,11.80
2022-12-25T12:00:17.835Z,11.90
2022-12-25T12:02:55.213Z,11.00
2022-12-25T12:05:30.527Z,10.70
2022-12-25T12:08:03.105Z,9.00
2022-12-25T12:10:42.594Z,8.20
2022-12-25T12:13:27.207Z,7.30
2022-12-25T12:15:58.480Z,7.20
2022-12-25T12:18:36.460Z,7.60
2022-12-25T12:21:09.280Z,6.30
2022-12-25T12:23:51.375Z,6.60
2022-12-25T12:26:23.121Z,5.80
2022-12-25T12:28:54.792Z,5.60
2022-12-25T12:31:25.370Z,4.60
2022-12-25T12:34:00.354Z,5.10
2022-12-25T12:36:36.206Z,5.80
2022-12-25T12:39:07.735Z,4.80
2022-12-25T12:41:47.263Z,5.00
2022-12-25T12:44:18.695Z,5.10
2022-12-25T12:46:56.693Z,5.90
2022-12-25T12:49:32.296Z,6.80
2022-12-25T12:52:28.996Z,7.60
2022-12-25T12:55:03.845Z,7.80
2022-12-25T12:57:39.304Z,7.80
2022-12-25T13:00:11.411Z,7.90
2022-12-25T13:03:03.548Z,8.60
2022-12-25T13:05:41.309Z,7.70
2022-12-25T13:08:27.789Z,7.20
2022-12-25T13:11:09.454Z,7.50
2022-12-25T13:13:43.269Z,8.20
2022-12-25T13:16:24.653Z,8.40
2022-12-25T13:18:56.733Z,8.20
2022-12-25T13:21:30.609Z,7.90
2022-12-25T13:24:02.454Z,7.00
2022-12-25T13:26:33.266Z,7.30
2022-12-25T13:29:07.962Z,7.20
2022-12-25T13:31:43.787Z,7.60
2022-12-25T13:34:26.093Z,8.30
2022-12-25T13:36:59.053Z,8.50
2022-12-25T13:39:29.445Z,8.50
2022-12-25T13:42:12.075Z,8.90
2022-12-25T13:44:49.400Z,7.80
2022-12-25T13:47:22.561Z,7.70
2022-12-25T13:49:53.687Z,7.80
2022-12-25T13:52:31.345Z,7.30
2022-12-25T13:55:03.343Z,7.80
2022-12-25T13:57:38.853Z,8.20
2022-12-25T14:00:18.886Z,7.60
2022-12-25T14:02:49.151Z,8.40
2022-12-25T14:05:41.636Z,8.40
2022-12-25T14:08:21.965Z,8.80
2022-12-25T14:10:55.182Z,8.00
2022-12-25T14:13:29.623Z,8.40
2022-12-25T14:16:00.454Z,8.90
2022-12-25T14:18:31.291Z,9.10
2022-12-25T14:21:03.928Z,10.10
2022-12-25T14:23:44.143Z,9.30
2022-12-25T14:26:18.936Z,9.10
2022-12-25T14:28:51.646Z,10.00
2022-12-25T14:31:22.652Z,10.30
2022-12-25T14:33:54.191Z,10.50
2022-12-25T14:36:24.583Z,11.50
2022-12-25T14:39:02.992Z,11.50
2022-12-25T14:41:38.596Z,11.50
2022-12-25T14:44:28.589Z,12.50
2022-12-25T14:47:07.744Z,12.90
2022-12-25T14:49:37.508Z,14.00
2022-12-25T14:52:13.390Z,14.20
2022-12-25T14:54:48.810Z,14.40
2022-12-25T14:57:22.694Z,14.60
2022-12-25T14:59:59.195Z,16.30
2022-12-25T15:02:29.187Z,16.80
2022-12-25T15:04:59.015Z,16.30
2022-12-25T15:07:32.076Z,16.60
2022-12-25T15:12:57.053Z,17.40
2022-12-25T15:15:27.387Z,17.50
2022-12-25T15:17:58.094Z,18.10
2022-12-25T15:20:32.243Z,18.50
2022-12-25T15:23:19.349Z,18.50
2022-12-25T15:25:53.433Z,19.20
2022-12-25T15:28:23.770Z,19.90
2022-12-25T15:30:53.661Z,20.30
2022-12-25T15:33:24.165Z,20.70
2022-12-25T15:35:53.986Z,20.70
2022-12-25T15:38:24.230Z,21.60
2022-12-25T15:40:56.586Z,22.20
2022-12-25T15:43:41.810Z,23.20
2022-12-25T15:46:12.387Z,23.90
2022-12-25T15:48:42.150Z,26.50
2022-12-25T15:51:11.949Z,28.00
2022-12-25T15:53:41.712Z,27.30
2022-12-25T15:56:15.173Z,26.90
2022-12-25T15:58:45.146Z,27.20
2022-12-25T16:01:17.228Z,27.20
2022-12-25T16:03:47.765Z,27.20
2022-12-25T16:06:19.488Z,26.90
2022-12-25T16:08:49.247Z,22.20
2022-12-25T16:11:21.587Z,19.30
2022-12-25T16:13:51.382Z,18.10
2022-12-25T16:16:22.829Z,19.80
2022-12-25T16:18:52.637Z,21.40
2022-12-25T16:21:23.384Z,23.20
2022-12-25T16:23:53.755Z,21.90
2022-12-25T16:26:26.152Z,20.40
2022-12-25T16:28:56.033Z,18.50
2022-12-25T16:31:25.912Z,17.90
2022-12-25T16:33:55.947Z,16.60
2022-12-25T16:36:27.180Z,14.30
2022-12-25T16:38:57.158Z,12.10
2022-12-25T16:41:29.561Z,11.70
2022-12-25T16:43:59.282Z,10.00
2022-12-25T16:46:29.062Z,11.20
2022-12-25T16:48:58.881Z,10.20
2022-12-25T16:51:28.718Z,10.70
2022-12-25T16:53:58.482Z,10.80
2022-12-25T16:56:32.324Z,9.60
2022-12-25T16:59:02.412Z,9.40
2022-12-25T17:01:32.359Z,9.20
2022-12-25T17:04:03.761Z,9.20
2022-12-25T17:06:33.734Z,8.90
2022-12-25T17:09:04.906Z,9.10
2022-12-25T17:11:39.979Z,9.20
2022-12-25T17:14:10.139Z,9.90
2022-12-25T17:16:41.003Z,9.50
2022-12-25T17:19:18.699Z,9.10
2022-12-25T17:21:48.893Z,8.70
2022-12-25T17:24:19.017Z,8.00
2022-12-25T17:26:51.471Z,8.20
2022-12-25T17:29:22.756Z,7.70
2022-12-25T17:31:52.859Z,6.60
2022-12-25T17:34:22.739Z,5.80
2022-12-25T17:36:52.513Z,6.30
2022-12-25T17:39:22.297Z,5.70
2022-12-25T17:41:54.872Z,4.50
2022-12-25T17:44:24.738Z,4.50
2022-12-25T17:46:54.559Z,4.70
2022-12-25T17:49:25.122Z,3.40
2022-12-25T17:51:56.717Z,2.40
2022-12-25T17:54:26.471Z,2.80
2022-12-25T17:56:58.839Z,2.80
2022-12-25T17:59:29.695Z,3.90
2022-12-25T18:01:59.542Z,3.40
2022-12-25T18:04:29.382Z,2.90
2022-12-25T18:06:59.176Z,2.60
2022-12-25T18:09:28.946Z,1.40
2022-12-25T18:12:01.413Z,1.00
2022-12-25T18:14:31.166Z,1.40
2022-12-25T18:17:00.951Z,2.30
2022-12-25T18:19:30.770Z,2.00
2022-12-25T18:22:00.556Z,1.90
2022-12-25T18:24:30.272Z,2.40
2022-12-25T18:27:02.624Z,2.60
2022-12-25T18:29:32.504Z,3.10
2022-12-25T18:32:02.347Z,2.90
2022-12-25T18:34:32.230Z,2.90
2022-12-25T18:37:03.100Z,3.30
2022-12-25T18:39:33.059Z,2.80
2022-12-25T18:42:17.978Z,3.40
2022-12-25T18:44:47.527Z,3.10
2022-12-25T18:47:17.307Z,3.40
2022-12-25T18:49:48.476Z,1.30
2022-12-25T18:52:48.124Z,1.40
2022-12-25T18:55:09.073Z,1.10
2022-12-25T18:57:41.472Z,1.20
2022-12-25T19:00:12.685Z,1.10
2022-12-25T19:02:42.580Z,1.10
2022-12-25T19:05:12.991Z,1.10
2022-12-25T19:07:42.755Z,1.10
2022-12-25T19:10:13.335Z,1.80
2022-12-25T19:12:45.680Z,2.50
2022-12-25T19:15:15.788Z,2.70
2022-12-25T19:17:45.541Z,2.80
2022-12-25T19:20:15.603Z,2.80
2022-12-25T19:22:45.451Z,3.40
2022-12-25T19:25:15.296Z,3.40
2022-12-25T19:27:47.735Z,4.50
2022-12-25T19:30:18.237Z,4.20
2022-12-25T19:32:48.046Z,4.30
2022-12-25T19:35:18.277Z,4.50
2022-12-25T19:37:48.055Z,4.50
2022-12-25T19:40:17.882Z,4.50
2022-12-25T19:42:50.212Z,4.20
2022-12-25T19:45:20.087Z,4.50
2022-12-25T19:47:49.906Z,4.50
2022-12-25T19:50:19.689Z,4.50
2022-12-25T19:52:49.564Z,5.10
2022-12-25T19:55:20.151Z,4.50
2022-12-25T19:57:52.558Z,4.40
2022-12-25T20:00:22.597Z,4.50
2022-12-25T20:02:52.588Z,4.50
2022-12-25T20:05:22.616Z,4.60
2022-12-25T20:07:52.367Z,3.90
2022-12-25T20:10:22.140Z,4.50
2022-12-25T20:12:54.549Z,5.20
2022-12-25T20:15:24.315Z,4.40
2022-12-25T20:17:54.895Z,5.10
2022-12-25T20:20:24.729Z,4.40
2022-12-25T20:22:54.508Z,4.60
2022-12-25T20:25:24.305Z,4.40
2022-12-25T20:27:56.731Z,5.30
2022-12-25T20:30:26.723Z,4.70
2022-12-25T20:32:57.955Z,4.40
2022-12-25T20:35:27.794Z,4.40
2022-12-25T20:37:57.593Z,4.40
2022-12-25T20:40:27.372Z,4.30
2022-12-25T20:42:59.814Z,4.20
2022-12-25T20:45:30.066Z,3.30
2022-12-25T20:47:59.974Z,2.80
2022-12-25T20:50:29.864Z,2.50
2022-12-25T20:52:59.632Z,3.00
2022-12-25T20:55:29.454Z,1.70
2022-12-25T20:58:01.759Z,2.40
2022-12-25T21:00:31.554Z,2.60
2022-12-25T21:03:01.447Z,2.20
2022-12-25T21:05:31.475Z,2.60
2022-12-25T21:08:01.239Z,2.60
2022-12-25T21:10:31.298Z,2.50
2022-12-25T21:13:03.699Z,2.20
2022-12-25T21:15:33.440Z,2.00
2022-12-25T21:18:03.796Z,2.60
2022-12-25T21:20:33.521Z,2.80
2022-12-25T21:23:03.311Z,3.70
2022-12-25T21:25:33.209Z,4.20
2022-12-25T21:28:05.618Z,3.90
2022-12-25T21:30:35.646Z,4.30
2022-12-25T21:33:18.106Z,4.20
2022-12-25T21:35:47.891Z,4.30
2022-12-25T21:38:18.059Z,3.00
2022-12-25T21:40:47.899Z,3.10
2022-12-25T21:43:20.207Z,2.40
2022-12-25T21:45:50.083Z,2.90
2022-12-25T21:48:25.467Z,2.30
2022-12-25T21:51:07.710Z,2.70
2022-12-25T21:53:37.454Z,3.10
2022-12-25T21:56:07.678Z,2.80
2022-12-25T21:58:40.038Z,3.10
2022-12-25T22:01:10.779Z,2.90
2022-12-25T22:03:40.690Z,3.70
2022-12-25T22:06:38.116Z,3.50
2022-12-25T22:09:08.499Z,2.30
2022-12-25T22:11:50.920Z,2.10
2022-12-25T22:14:52.742Z,3.00
2022-12-25T22:17:37.707Z,2.50
2022-12-25T22:20:09.142Z,2.00
2022-12-25T22:22:39.026Z,2.00
2022-12-25T22:25:10.780Z,2.70
2022-12-25T22:27:42.296Z,3.00
2022-12-25T22:30:17.264Z,2.60
2022-12-25T22:32:48.102Z,2.00
2022-12-25T22:35:18.714Z,1.90
2022-12-25T22:37:49.659Z,1.30
2022-12-25T22:40:21.238Z,1.40
2022-12-25T22:42:51.215Z,1.40
2022-12-25T22:45:23.593Z,1.30
2022-12-25T22:47:53.343Z,1.10
2022-12-25T22:50:23.316Z,1.00
2022-12-25T22:52:53.135Z,1.80
2022-12-25T22:55:23.048Z,2.00
2022-12-25T22:57:52.861Z,2.50
2022-12-25T23:00:25.359Z,1.50
2022-12-25T23:02:55.315Z,1.00
2022-12-25T23:05:25.610Z,1.00
2022-12-25T23:07:55.471Z,1.20
2022-12-25T23:10:25.311Z,1.00
2022-12-25T23:13:07.617Z,1.00
2022-12-25T23:15:40.032Z,1.00
2022-12-25T23:18:22.310Z,1.00
2022-12-25T23:21:04.792Z,1.00
2022-12-25T23:23:47.142Z,1.00
2022-12-25T23:26:19.040Z,1.00
2022-12-25T23:29:01.892Z,1.00
2022-12-25T23:31:36.584Z,1.00
2022-12-25T23:34:08.023Z,1.00
2022-12-25T23:36:38.044Z,1.00
2022-12-25T23:39:10.653Z,1.00
2022-12-25T23:41:41.808Z,1.00
2022-12-25T23:44:12.452Z,1.00
2022-12-25T23:46:53.340Z,1.00
2022-12-25T23:49:23.902Z,1.00
2022-12-25T23:51:54.265Z,1.00
2022-12-25T23:54:26.371Z,1.00
2022-12-25T23:56:57.275Z,1.00
2022-12-25T23:59:27.421Z,1.00
